createdAt,value
2023-05-15T00:02:25.799Z,0.00
2023-05-15T00:07:25.712Z,0.00
2023-05-15T00:12:25.892Z,0.00
2023-05-15T00:17:25.547Z,0.00
2023-05-15T00:22:25.472Z,0.00
2023-05-15T00:27:25.402Z,0.00
2023-05-15T00:32:25.381Z,0.00
2023-05-15T00:37:25.290Z,0.00
2023-05-15T00:42:25.217Z,0.00
2023-05-15T00:47:25.183Z,0.00
2023-05-15T00:52:25.102Z,0.00
2023-05-15T00:57:25.010Z,0.00
2023-05-15T01:02:25.004Z,0.00
2023-05-15T01:07:24.886Z,0.00
2023-05-15T01:12:24.813Z,0.00
2023-05-15T01:17:24.733Z,0.00
2023-05-15T01:22:24.696Z,0.00
2023-05-15T01:27:24.631Z,0.00
2023-05-15T01:32:24.685Z,0.00
2023-05-15T01:37:24.484Z,0.00
2023-05-15T01:42:24.415Z,0.00
2023-05-15T01:47:24.357Z,0.00
2023-05-15T01:52:24.279Z,0.00
2023-05-15T01:57:24.207Z,0.00
2023-05-15T02:02:24.227Z,0.00
2023-05-15T02:07:24.086Z,0.00
2023-05-15T02:12:24.014Z,0.00
2023-05-15T02:17:24.019Z,0.00
2023-05-15T02:22:23.878Z,0.00
2023-05-15T02:27:23.819Z,0.00
2023-05-15T02:32:23.797Z,0.00
2023-05-15T02:37:23.679Z,0.00
2023-05-15T02:42:23.617Z,0.00
2023-05-15T02:47:23.658Z,0.00
2023-05-15T02:52:23.481Z,4.00
2023-05-15T02:57:23.405Z,4.00
2023-05-15T03:02:23.407Z,8.00
2023-05-15T03:07:23.285Z,16.00
2023-05-15T03:12:23.209Z,28.00
2023-05-15T03:17:23.142Z,40.00
2023-05-15T03:22:23.078Z,60.00
2023-05-15T03:27:23.019Z,104.00
2023-05-15T03:32:23.022Z,168.00
2023-05-15T03:37:22.878Z,236.00
2023-05-15T03:42:22.811Z,300.00
2023-05-15T03:47:22.758Z,340.00
2023-05-15T03:52:22.678Z,428.00
2023-05-15T03:57:22.622Z,560.00
2023-05-15T04:02:22.622Z,672.00
2023-05-15T04:07:22.467Z,756.00
2023-05-15T04:12:22.411Z,820.00
2023-05-15T04:17:22.357Z,892.00
2023-05-15T04:22:22.279Z,996.00
2023-05-15T04:27:22.206Z,1072.00
2023-05-15T04:32:22.141Z,1160.00
2023-05-15T04:37:22.072Z,1364.00
2023-05-15T04:42:22.002Z,1504.00
2023-05-15T04:47:22.057Z,1616.00
2023-05-15T04:52:21.862Z,1824.00
2023-05-15T04:57:21.798Z,2036.00
2023-05-15T05:02:21.804Z,2268.00
2023-05-15T05:07:21.675Z,2564.00
2023-05-15T05:12:21.601Z,2792.00
2023-05-15T05:17:21.531Z,2908.00
2023-05-15T05:22:21.486Z,3112.00
2023-05-15T05:27:21.395Z,3264.00
2023-05-15T05:32:21.348Z,3432.00
2023-05-15T05:37:21.277Z,3668.00
2023-05-15T05:42:21.208Z,3704.00
2023-05-15T05:47:21.256Z,3976.00
2023-05-15T05:52:21.078Z,4412.00
2023-05-15T05:57:21.021Z,4320.00
2023-05-15T06:02:20.984Z,3916.00
2023-05-15T06:07:20.876Z,4280.00
2023-05-15T06:12:22.941Z,4468.00
2023-05-15T06:17:20.714Z,4552.00
2023-05-15T06:22:20.665Z,4888.00
2023-05-15T06:27:20.599Z,5448.00
2023-05-15T06:32:20.524Z,6288.00
2023-05-15T06:37:20.451Z,6672.00
2023-05-15T06:42:20.394Z,6944.00
2023-05-15T06:47:20.321Z,7152.00
2023-05-15T06:52:20.260Z,7168.00
2023-05-15T06:57:20.179Z,7476.00
2023-05-15T07:02:20.130Z,8148.00
2023-05-15T07:07:20.061Z,10196.00
2023-05-15T07:12:19.995Z,12964.00
2023-05-15T07:17:19.968Z,24224.00
2023-05-15T07:22:19.849Z,21312.00
2023-05-15T07:27:19.786Z,17728.00
2023-05-15T07:32:19.818Z,13592.00
2023-05-15T07:37:19.660Z,12296.00
2023-05-15T07:42:19.583Z,12000.00
2023-05-15T07:47:19.517Z,10884.00
2023-05-15T07:52:19.452Z,10052.00
2023-05-15T07:57:19.397Z,8964.00
2023-05-15T08:02:19.491Z,8160.00
2023-05-15T08:07:19.257Z,8464.00
2023-05-15T08:12:19.196Z,8756.00
2023-05-15T08:17:19.124Z,8844.00
2023-05-15T08:22:19.049Z,8648.00
2023-05-15T08:27:18.985Z,8388.00
2023-05-15T08:32:18.931Z,7616.00
2023-05-15T08:37:18.867Z,7384.00
2023-05-15T08:42:18.796Z,7404.00
2023-05-15T08:47:18.727Z,7548.00
2023-05-15T08:52:18.667Z,7672.00
2023-05-15T08:57:18.581Z,7680.00
2023-05-15T09:02:18.523Z,8076.00
2023-05-15T09:07:18.458Z,8532.00
2023-05-15T09:12:18.381Z,9408.00
2023-05-15T09:17:18.325Z,9864.00
2023-05-15T09:22:18.324Z,10680.00
2023-05-15T09:27:18.195Z,12400.00
2023-05-15T09:32:18.127Z,14796.00
2023-05-15T09:37:18.072Z,17440.00
2023-05-15T09:42:17.982Z,17824.00
2023-05-15T09:47:18.039Z,17536.00
2023-05-15T09:52:17.861Z,16992.00
2023-05-15T09:57:17.790Z,16832.00
2023-05-15T10:02:17.728Z,16320.00
2023-05-15T10:07:17.666Z,14976.00
2023-05-15T10:12:17.638Z,15040.00
2023-05-15T10:17:17.530Z,15840.00
2023-05-15T10:22:17.469Z,16192.00
2023-05-15T10:27:17.392Z,15904.00
2023-05-15T10:32:17.335Z,15840.00
2023-05-15T10:37:17.256Z,15104.00
2023-05-15T10:42:17.207Z,14976.00
2023-05-15T10:47:17.290Z,14720.00
2023-05-15T10:52:17.136Z,14656.00
2023-05-15T10:57:17.047Z,13864.00
2023-05-15T11:02:17.192Z,13052.00
2023-05-15T11:07:17.965Z,13632.00
2023-05-15T11:12:16.829Z,14564.00
2023-05-15T11:17:16.815Z,16096.00
2023-05-15T11:22:16.702Z,15936.00
2023-05-15T11:27:16.644Z,16480.00
2023-05-15T11:32:16.584Z,16640.00
2023-05-15T11:37:16.856Z,15680.00
2023-05-15T11:42:16.440Z,12060.00
2023-05-15T11:47:16.367Z,5208.00
2023-05-15T11:52:16.315Z,2400.00
2023-05-15T11:57:16.217Z,1512.00
2023-05-15T12:02:16.154Z,1452.00
2023-05-15T12:07:16.079Z,1824.00
2023-05-15T12:12:16.021Z,2356.00
2023-05-15T12:17:15.985Z,3092.00
2023-05-15T12:22:16.250Z,5052.00
2023-05-15T12:27:16.294Z,6380.00
2023-05-15T12:32:15.876Z,5832.00
2023-05-15T12:37:15.699Z,5276.00
2023-05-15T12:42:15.614Z,6628.00
2023-05-15T12:47:15.535Z,9432.00
2023-05-15T12:52:15.495Z,13328.00
2023-05-15T12:57:15.401Z,11856.00
2023-05-15T13:02:15.378Z,11340.00
2023-05-15T13:07:15.316Z,8804.00
2023-05-15T13:12:15.232Z,4640.00
2023-05-15T13:17:15.159Z,3360.00
2023-05-15T13:22:15.266Z,3360.00
2023-05-15T13:27:15.011Z,3756.00
2023-05-15T13:32:15.144Z,6360.00
2023-05-15T13:37:14.898Z,6044.00
2023-05-15T13:42:14.883Z,5636.00
2023-05-15T13:47:14.835Z,6756.00
2023-05-15T13:52:14.683Z,8440.00
2023-05-15T13:57:14.613Z,7984.00
2023-05-15T14:02:14.556Z,7132.00
2023-05-15T14:07:14.502Z,7440.00
2023-05-15T14:12:14.424Z,8920.00
2023-05-15T14:17:14.359Z,8508.00
2023-05-15T14:22:14.272Z,7088.00
2023-05-15T14:27:14.193Z,7520.00
2023-05-15T14:32:14.326Z,8912.00
2023-05-15T14:37:14.074Z,7192.00
2023-05-15T14:42:14.003Z,5908.00
2023-05-15T14:47:13.929Z,6468.00
2023-05-15T14:52:13.857Z,5416.00
2023-05-15T14:57:13.781Z,5336.00
2023-05-15T15:02:13.721Z,5352.00
2023-05-15T15:07:13.737Z,5180.00
2023-05-15T15:12:13.592Z,5136.00
2023-05-15T15:17:13.534Z,5332.00
2023-05-15T15:22:13.451Z,4320.00
2023-05-15T15:27:13.386Z,4272.00
2023-05-15T15:32:13.388Z,4512.00
2023-05-15T15:37:13.248Z,4292.00
2023-05-15T15:42:13.179Z,2288.00
2023-05-15T15:47:13.115Z,1072.00
2023-05-15T15:52:13.040Z,668.00
2023-05-15T15:57:12.988Z,688.00
2023-05-15T16:02:12.906Z,636.00
2023-05-15T16:07:12.848Z,776.00
2023-05-15T16:12:12.774Z,1060.00
2023-05-15T16:17:12.765Z,1296.00
2023-05-15T16:22:12.644Z,1600.00
2023-05-15T16:27:12.587Z,1896.00
2023-05-15T16:32:12.513Z,2172.00
2023-05-15T16:37:12.451Z,2732.00
2023-05-15T16:42:12.378Z,2648.00
2023-05-15T16:47:12.334Z,2432.00
2023-05-15T16:52:12.261Z,1904.00
2023-05-15T16:57:12.183Z,1196.00
2023-05-15T17:02:12.177Z,712.00
2023-05-15T17:07:12.045Z,840.00
2023-05-15T17:12:11.974Z,1044.00
2023-05-15T17:17:11.905Z,1052.00
2023-05-15T17:22:11.850Z,1200.00
2023-05-15T17:27:11.780Z,1344.00
2023-05-15T17:32:11.799Z,1284.00
2023-05-15T17:37:11.653Z,1148.00
2023-05-15T17:42:11.617Z,896.00
2023-05-15T17:47:11.526Z,656.00
2023-05-15T17:52:11.472Z,492.00
2023-05-15T17:57:11.381Z,316.00
2023-05-15T18:02:11.318Z,168.00
2023-05-15T18:07:11.240Z,144.00
2023-05-15T18:12:11.168Z,188.00
2023-05-15T18:17:11.112Z,216.00
2023-05-15T18:22:11.047Z,196.00
2023-05-15T18:27:10.982Z,112.00
2023-05-15T18:32:10.907Z,84.00
2023-05-15T18:37:10.859Z,68.00
2023-05-15T18:42:10.773Z,60.00
2023-05-15T18:47:10.744Z,64.00
2023-05-15T18:52:10.644Z,56.00
2023-05-15T18:57:10.590Z,40.00
2023-05-15T19:02:10.533Z,24.00
2023-05-15T19:07:10.429Z,12.00
2023-05-15T19:12:10.356Z,4.00
2023-05-15T19:17:10.308Z,4.00
2023-05-15T19:22:10.236Z,0.00
2023-05-15T19:27:10.176Z,0.00
2023-05-15T19:32:10.223Z,0.00
2023-05-15T19:37:10.053Z,0.00
2023-05-15T19:42:09.974Z,0.00
2023-05-15T19:47:09.903Z,0.00
2023-05-15T19:52:09.850Z,0.00
2023-05-15T19:57:09.773Z,0.00
2023-05-15T20:02:09.733Z,0.00
2023-05-15T20:07:09.653Z,0.00
2023-05-15T20:12:09.574Z,0.00
2023-05-15T20:17:09.519Z,0.00
2023-05-15T20:22:09.434Z,0.00
2023-05-15T20:27:09.381Z,0.00
2023-05-15T20:32:09.367Z,0.00
2023-05-15T20:37:09.235Z,0.00
2023-05-15T20:42:09.166Z,0.00
2023-05-15T20:47:09.103Z,0.00
2023-05-15T20:52:09.033Z,0.00
2023-05-15T20:57:08.978Z,0.00
2023-05-15T21:02:08.905Z,0.00
2023-05-15T21:07:08.837Z,0.00
2023-05-15T21:12:08.766Z,0.00
2023-05-15T21:17:08.837Z,0.00
2023-05-15T21:22:08.643Z,0.00
2023-05-15T21:27:08.562Z,0.00
2023-05-15T21:32:08.500Z,0.00
2023-05-15T21:37:08.434Z,0.00
2023-05-15T21:42:08.359Z,0.00
2023-05-15T21:47:08.303Z,0.00
2023-05-15T21:52:08.249Z,0.00
2023-05-15T21:57:08.172Z,0.00
2023-05-15T22:02:08.151Z,0.00
2023-05-15T22:07:08.033Z,0.00
2023-05-15T22:12:07.954Z,0.00
2023-05-15T22:17:07.896Z,0.00
2023-05-15T22:22:07.830Z,0.00
2023-05-15T22:27:07.751Z,0.00
2023-05-15T22:32:07.734Z,0.00
2023-05-15T22:37:07.632Z,0.00
2023-05-15T22:42:07.563Z,0.00
2023-05-15T22:47:07.489Z,0.00
2023-05-15T22:52:07.413Z,0.00
2023-05-15T22:57:07.361Z,0.00
2023-05-15T23:02:07.323Z,0.00
2023-05-15T23:07:07.222Z,0.00
2023-05-15T23:12:07.170Z,0.00
2023-05-15T23:17:07.090Z,0.00
2023-05-15T23:22:07.014Z,0.00
2023-05-15T23:27:06.950Z,0.00
2023-05-15T23:32:06.885Z,0.00
2023-05-15T23:37:06.849Z,0.00
2023-05-15T23:42:06.740Z,0.00
2023-05-15T23:47:06.731Z,0.00
2023-05-15T23:52:06.608Z,0.00
2023-05-15T23:57:06.545Z,0.00
